Lofall, Washington
Current Conditions -  °F | °C
As of 3:15 AM on Monday 20 Oct 2014 (Local Time) from KPWT Reporting Station
Overcast Overcast  
Wind Chill: 57°   Ceiling: 1700
Heat Index: 57°   Visibility: 10mi
Dew Point: 55°   Wind: 0mph
Humidity: 94%   Direction: NA
Pressure: 29.73"   Gusts: NA
Location:  47.7571°N, 122.623°W
Report Text: KPWT 201015Z AUTO 00000KT 10SM SCT003 BKN017 OVC037 14/13 A2973 RMK AO1
Loading
Personal Weather Stations






























Interactive Weather Map
Tropical Storm Tracking
New forecast layout! Learn more

10-Day Weather Forecast

Advertisements
Track Severe Weather on mobile